sensor_id;sensor_type;location;lat;lon;timestamp;temperature;humidity
15105;DHT22;7653;48.994;9.212;2022-07-15T00:00:40;19.30;18.10
15105;DHT22;7653;48.994;9.212;2022-07-15T00:03:13;19.20;18.00
15105;DHT22;7653;48.994;9.212;2022-07-15T00:05:47;19.20;17.90
15105;DHT22;7653;48.994;9.212;2022-07-15T00:08:13;19.00;18.40
15105;DHT22;7653;48.994;9.212;2022-07-15T00:10:39;18.90;19.00
15105;DHT22;7653;48.994;9.212;2022-07-15T00:13:04;18.80;19.30
15105;DHT22;7653;48.994;9.212;2022-07-15T00:15:31;18.70;19.60
15105;DHT22;7653;48.994;9.212;2022-07-15T00:17:57;18.70;20.20
15105;DHT22;7653;48.994;9.212;2022-07-15T00:20:27;18.70;20.10
15105;DHT22;7653;48.994;9.212;2022-07-15T00:22:59;18.90;19.10
15105;DHT22;7653;48.994;9.212;2022-07-15T00:25:25;18.60;19.70
15105;DHT22;7653;48.994;9.212;2022-07-15T00:27:57;18.60;19.60
15105;DHT22;7653;48.994;9.212;2022-07-15T00:30:27;18.40;20.10
15105;DHT22;7653;48.994;9.212;2022-07-15T00:32:59;18.10;21.40
15105;DHT22;7653;48.994;9.212;2022-07-15T00:35:32;18.10;21.00
15105;DHT22;7653;48.994;9.212;2022-07-15T00:38:09;18.10;21.00
15105;DHT22;7653;48.994;9.212;2022-07-15T00:40:41;18.20;21.40
15105;DHT22;7653;48.994;9.212;2022-07-15T00:43:07;18.10;21.00
15105;DHT22;7653;48.994;9.212;2022-07-15T00:45:33;18.00;22.40
15105;DHT22;7653;48.994;9.212;2022-07-15T00:47:58;17.70;23.50
15105;DHT22;7653;48.994;9.212;2022-07-15T00:50:27;17.50;23.30
15105;DHT22;7653;48.994;9.212;2022-07-15T00:53:10;17.50;23.60
15105;DHT22;7653;48.994;9.212;2022-07-15T00:55:40;17.50;23.90
15105;DHT22;7653;48.994;9.212;2022-07-15T00:58:07;17.10;23.90
15105;DHT22;7653;48.994;9.212;2022-07-15T01:00:36;16.90;25.60
15105;DHT22;7653;48.994;9.212;2022-07-15T01:03:02;16.90;25.90
15105;DHT22;7653;48.994;9.212;2022-07-15T01:05:29;16.90;26.00
15105;DHT22;7653;48.994;9.212;2022-07-15T01:07:55;16.80;26.70
15105;DHT22;7653;48.994;9.212;2022-07-15T01:10:22;16.80;27.30
15105;DHT22;7653;48.994;9.212;2022-07-15T01:12:49;16.70;27.10
15105;DHT22;7653;48.994;9.212;2022-07-15T01:15:15;16.60;27.10
15105;DHT22;7653;48.994;9.212;2022-07-15T01:17:43;16.60;27.10
15105;DHT22;7653;48.994;9.212;2022-07-15T01:20:10;16.50;27.10
15105;DHT22;7653;48.994;9.212;2022-07-15T01:22:36;16.50;27.10
15105;DHT22;7653;48.994;9.212;2022-07-15T01:25:02;16.50;27.90
15105;DHT22;7653;48.994;9.212;2022-07-15T01:27:31;16.40;27.50
15105;DHT22;7653;48.994;9.212;2022-07-15T01:29:58;16.50;27.90
15105;DHT22;7653;48.994;9.212;2022-07-15T01:32:25;16.60;27.10
15105;DHT22;7653;48.994;9.212;2022-07-15T01:34:51;16.80;28.70
15105;DHT22;7653;48.994;9.212;2022-07-15T01:37:17;17.10;28.50
15105;DHT22;7653;48.994;9.212;2022-07-15T01:39:43;17.00;27.50
15105;DHT22;7653;48.994;9.212;2022-07-15T01:42:09;17.00;27.80
15105;DHT22;7653;48.994;9.212;2022-07-15T01:44:35;17.10;28.40
15105;DHT22;7653;48.994;9.212;2022-07-15T01:47:01;17.10;28.10
15105;DHT22;7653;48.994;9.212;2022-07-15T01:49:27;17.30;29.20
15105;DHT22;7653;48.994;9.212;2022-07-15T01:51:56;17.30;29.10
15105;DHT22;7653;48.994;9.212;2022-07-15T01:54:24;17.20;29.80
15105;DHT22;7653;48.994;9.212;2022-07-15T01:56:55;16.80;30.00
15105;DHT22;7653;48.994;9.212;2022-07-15T01:59:21;16.70;31.40
15105;DHT22;7653;48.994;9.212;2022-07-15T02:04:31;16.40;32.90
15105;DHT22;7653;48.994;9.212;2022-07-15T02:06:57;16.30;34.30
15105;DHT22;7653;48.994;9.212;2022-07-15T02:09:26;16.40;34.20
15105;DHT22;7653;48.994;9.212;2022-07-15T02:11:52;16.20;34.40
15105;DHT22;7653;48.994;9.212;2022-07-15T02:14:18;16.10;34.40
15105;DHT22;7653;48.994;9.212;2022-07-15T02:16:44;16.20;34.70
15105;DHT22;7653;48.994;9.212;2022-07-15T02:19:10;16.00;35.40
15105;DHT22;7653;48.994;9.212;2022-07-15T02:21:36;15.90;35.90
15105;DHT22;7653;48.994;9.212;2022-07-15T02:24:02;15.80;35.80
15105;DHT22;7653;48.994;9.212;2022-07-15T02:26:28;15.70;35.70
15105;DHT22;7653;48.994;9.212;2022-07-15T02:28:54;15.70;35.70
15105;DHT22;7653;48.994;9.212;2022-07-15T02:31:19;15.70;36.60
15105;DHT22;7653;48.994;9.212;2022-07-15T02:33:48;15.70;37.60
15105;DHT22;7653;48.994;9.212;2022-07-15T02:36:14;15.50;37.40
15105;DHT22;7653;48.994;9.212;2022-07-15T02:38:40;15.40;37.50
15105;DHT22;7653;48.994;9.212;2022-07-15T02:41:09;15.20;38.90
15105;DHT22;7653;48.994;9.212;2022-07-15T02:43:37;15.20;39.30
15105;DHT22;7653;48.994;9.212;2022-07-15T02:46:04;15.10;39.70
15105;DHT22;7653;48.994;9.212;2022-07-15T02:48:30;14.70;39.90
15105;DHT22;7653;48.994;9.212;2022-07-15T02:50:57;14.40;42.70
15105;DHT22;7653;48.994;9.212;2022-07-15T02:53:23;14.60;43.00
15105;DHT22;7653;48.994;9.212;2022-07-15T02:56:06;14.80;42.30
15105;DHT22;7653;48.994;9.212;2022-07-15T02:58:37;14.70;41.80
15105;DHT22;7653;48.994;9.212;2022-07-15T03:01:03;14.70;42.70
15105;DHT22;7653;48.994;9.212;2022-07-15T03:03:32;14.60;43.90
15105;DHT22;7653;48.994;9.212;2022-07-15T03:05:58;14.70;44.20
15105;DHT22;7653;48.994;9.212;2022-07-15T03:08:23;14.50;43.20
15105;DHT22;7653;48.994;9.212;2022-07-15T03:10:49;14.40;44.60
15105;DHT22;7653;48.994;9.212;2022-07-15T03:13:18;14.50;44.70
15105;DHT22;7653;48.994;9.212;2022-07-15T03:15:46;14.50;44.70
15105;DHT22;7653;48.994;9.212;2022-07-15T03:18:11;14.40;44.60
15105;DHT22;7653;48.994;9.212;2022-07-15T03:20:37;14.40;44.60
15105;DHT22;7653;48.994;9.212;2022-07-15T03:23:06;14.30;45.60
15105;DHT22;7653;48.994;9.212;2022-07-15T03:25:39;14.30;44.50
15105;DHT22;7653;48.994;9.212;2022-07-15T03:28:04;13.90;46.80
15105;DHT22;7653;48.994;9.212;2022-07-15T03:30:30;14.10;48.00
15105;DHT22;7653;48.994;9.212;2022-07-15T03:32:56;14.20;46.30
15105;DHT22;7653;48.994;9.212;2022-07-15T03:35:22;14.20;46.90
15105;DHT22;7653;48.994;9.212;2022-07-15T03:37:48;14.40;46.50
15105;DHT22;7653;48.994;9.212;2022-07-15T03:40:14;14.40;45.70
15105;DHT22;7653;48.994;9.212;2022-07-15T03:42:39;14.30;46.00
15105;DHT22;7653;48.994;9.212;2022-07-15T03:45:06;14.40;46.10
15105;DHT22;7653;48.994;9.212;2022-07-15T03:47:31;14.50;46.10
15105;DHT22;7653;48.994;9.212;2022-07-15T03:49:57;14.40;45.90
15105;DHT22;7653;48.994;9.212;2022-07-15T03:52:23;14.50;46.30
15105;DHT22;7653;48.994;9.212;2022-07-15T03:54:48;14.50;46.20
15105;DHT22;7653;48.994;9.212;2022-07-15T03:57:14;14.60;46.20
15105;DHT22;7653;48.994;9.212;2022-07-15T03:59:44;14.60;46.40
15105;DHT22;7653;48.994;9.212;2022-07-15T04:02:10;14.70;46.80
15105;DHT22;7653;48.994;9.212;2022-07-15T04:04:36;14.60;46.80
15105;DHT22;7653;48.994;9.212;2022-07-15T04:07:01;14.70;47.40
15105;DHT22;7653;48.994;9.212;2022-07-15T04:09:27;14.70;47.30
15105;DHT22;7653;48.994;9.212;2022-07-15T04:11:53;14.80;47.30
15105;DHT22;7653;48.994;9.212;2022-07-15T04:14:18;14.70;47.70
15105;DHT22;7653;48.994;9.212;2022-07-15T04:16:47;14.70;48.00
15105;DHT22;7653;48.994;9.212;2022-07-15T04:19:13;14.70;49.70
15105;DHT22;7653;48.994;9.212;2022-07-15T04:21:38;14.70;49.70
15105;DHT22;7653;48.994;9.212;2022-07-15T04:24:04;14.80;49.70
15105;DHT22;7653;48.994;9.212;2022-07-15T04:26:30;14.80;49.90
15105;DHT22;7653;48.994;9.212;2022-07-15T04:28:56;14.80;49.90
15105;DHT22;7653;48.994;9.212;2022-07-15T04:31:22;14.90;50.00
15105;DHT22;7653;48.994;9.212;2022-07-15T04:33:55;15.00;51.10
15105;DHT22;7653;48.994;9.212;2022-07-15T04:36:24;15.00;50.80
15105;DHT22;7653;48.994;9.212;2022-07-15T04:38:52;15.00;50.10
15105;DHT22;7653;48.994;9.212;2022-07-15T04:41:18;15.10;50.20
15105;DHT22;7653;48.994;9.212;2022-07-15T04:43:44;15.20;50.30
15105;DHT22;7653;48.994;9.212;2022-07-15T04:46:10;15.40;50.40
15105;DHT22;7653;48.994;9.212;2022-07-15T04:48:37;15.40;50.40
15105;DHT22;7653;48.994;9.212;2022-07-15T04:51:22;15.60;49.80
15105;DHT22;7653;48.994;9.212;2022-07-15T04:53:49;15.70;48.60
15105;DHT22;7653;48.994;9.212;2022-07-15T04:56:16;15.80;49.40
15105;DHT22;7653;48.994;9.212;2022-07-15T04:58:42;15.70;48.30
15105;DHT22;7653;48.994;9.212;2022-07-15T05:01:08;15.80;47.70
15105;DHT22;7653;48.994;9.212;2022-07-15T05:03:33;15.90;50.00
15105;DHT22;7653;48.994;9.212;2022-07-15T05:05:59;16.00;51.00
15105;DHT22;7653;48.994;9.212;2022-07-15T05:08:25;16.10;50.70
15105;DHT22;7653;48.994;9.212;2022-07-15T05:10:51;16.20;50.30
15105;DHT22;7653;48.994;9.212;2022-07-15T05:13:16;16.30;49.60
15105;DHT22;7653;48.994;9.212;2022-07-15T05:15:42;16.30;49.20
15105;DHT22;7653;48.994;9.212;2022-07-15T05:18:08;16.50;49.60
15105;DHT22;7653;48.994;9.212;2022-07-15T05:20:34;16.60;49.70
15105;DHT22;7653;48.994;9.212;2022-07-15T05:23:02;16.30;43.20
15105;DHT22;7653;48.994;9.212;2022-07-15T05:25:29;16.50;46.50
15105;DHT22;7653;48.994;9.212;2022-07-15T05:27:55;16.70;44.90
15105;DHT22;7653;48.994;9.212;2022-07-15T05:30:22;17.00;39.30
15105;DHT22;7653;48.994;9.212;2022-07-15T05:32:47;17.00;40.70
15105;DHT22;7653;48.994;9.212;2022-07-15T05:35:13;17.20;40.80
15105;DHT22;7653;48.994;9.212;2022-07-15T05:37:42;17.30;38.60
15105;DHT22;7653;48.994;9.212;2022-07-15T05:40:08;17.30;34.50
15105;DHT22;7653;48.994;9.212;2022-07-15T05:42:34;17.30;42.60
15105;DHT22;7653;48.994;9.212;2022-07-15T05:45:00;17.10;36.60
15105;DHT22;7653;48.994;9.212;2022-07-15T05:47:27;17.00;36.00
15105;DHT22;7653;48.994;9.212;2022-07-15T05:49:53;17.00;34.00
15105;DHT22;7653;48.994;9.212;2022-07-15T05:52:18;17.20;36.20
15105;DHT22;7653;48.994;9.212;2022-07-15T05:54:44;17.40;36.40
15105;DHT22;7653;48.994;9.212;2022-07-15T05:57:10;17.70;33.50
15105;DHT22;7653;48.994;9.212;2022-07-15T05:59:35;17.90;32.30
15105;DHT22;7653;48.994;9.212;2022-07-15T06:02:02;17.90;32.20
15105;DHT22;7653;48.994;9.212;2022-07-15T06:04:28;17.80;32.60
15105;DHT22;7653;48.994;9.212;2022-07-15T06:06:54;18.00;31.70
15105;DHT22;7653;48.994;9.212;2022-07-15T06:09:21;18.10;31.40
15105;DHT22;7653;48.994;9.212;2022-07-15T06:11:47;18.20;31.90
15105;DHT22;7653;48.994;9.212;2022-07-15T06:14:13;18.30;30.30
15105;DHT22;7653;48.994;9.212;2022-07-15T06:16:39;18.40;30.00
15105;DHT22;7653;48.994;9.212;2022-07-15T06:19:04;18.40;29.10
15105;DHT22;7653;48.994;9.212;2022-07-15T06:21:30;18.50;29.00
15105;DHT22;7653;48.994;9.212;2022-07-15T06:23:56;18.60;28.50
15105;DHT22;7653;48.994;9.212;2022-07-15T06:26:21;18.60;28.50
15105;DHT22;7653;48.994;9.212;2022-07-15T06:28:47;18.50;31.30
15105;DHT22;7653;48.994;9.212;2022-07-15T06:31:13;18.70;31.40
15105;DHT22;7653;48.994;9.212;2022-07-15T06:33:39;18.90;28.70
15105;DHT22;7653;48.994;9.212;2022-07-15T06:36:04;19.00;28.10
15105;DHT22;7653;48.994;9.212;2022-07-15T06:38:33;18.90;28.10
15105;DHT22;7653;48.994;9.212;2022-07-15T06:40:59;19.00;30.00
15105;DHT22;7653;48.994;9.212;2022-07-15T06:43:24;19.00;27.10
15105;DHT22;7653;48.994;9.212;2022-07-15T06:45:50;19.20;28.50
15105;DHT22;7653;48.994;9.212;2022-07-15T06:48:15;19.20;24.80
15105;DHT22;7653;48.994;9.212;2022-07-15T06:50:41;19.40;25.90
15105;DHT22;7653;48.994;9.212;2022-07-15T06:53:08;19.60;25.10
15105;DHT22;7653;48.994;9.212;2022-07-15T06:55:35;19.70;23.90
15105;DHT22;7653;48.994;9.212;2022-07-15T06:58:03;19.60;23.70
15105;DHT22;7653;48.994;9.212;2022-07-15T07:00:29;19.80;24.30
15105;DHT22;7653;48.994;9.212;2022-07-15T07:02:55;20.00;21.20
15105;DHT22;7653;48.994;9.212;2022-07-15T07:05:21;20.10;23.10
15105;DHT22;7653;48.994;9.212;2022-07-15T07:07:47;20.20;22.30
15105;DHT22;7653;48.994;9.212;2022-07-15T07:10:13;20.50;22.30
15105;DHT22;7653;48.994;9.212;2022-07-15T07:12:39;20.60;19.40
15105;DHT22;7653;48.994;9.212;2022-07-15T07:15:11;20.60;19.40
15105;DHT22;7653;48.994;9.212;2022-07-15T07:17:38;20.40;18.60
15105;DHT22;7653;48.994;9.212;2022-07-15T07:20:04;20.30;19.10
15105;DHT22;7653;48.994;9.212;2022-07-15T07:22:31;20.30;19.20
15105;DHT22;7653;48.994;9.212;2022-07-15T07:24:59;20.60;19.20
15105;DHT22;7653;48.994;9.212;2022-07-15T07:27:25;20.80;17.80
15105;DHT22;7653;48.994;9.212;2022-07-15T07:29:50;20.90;17.60
15105;DHT22;7653;48.994;9.212;2022-07-15T07:32:17;21.00;17.50
15105;DHT22;7653;48.994;9.212;2022-07-15T07:34:43;21.20;15.00
15105;DHT22;7653;48.994;9.212;2022-07-15T07:37:09;21.30;15.50
15105;DHT22;7653;48.994;9.212;2022-07-15T07:42:21;21.70;17.70
15105;DHT22;7653;48.994;9.212;2022-07-15T07:44:46;21.70;17.10
15105;DHT22;7653;48.994;9.212;2022-07-15T07:47:12;21.70;15.30
15105;DHT22;7653;48.994;9.212;2022-07-15T07:49:38;21.90;13.70
15105;DHT22;7653;48.994;9.212;2022-07-15T07:52:04;21.90;13.00
15105;DHT22;7653;48.994;9.212;2022-07-15T07:57:19;21.50;12.50
15105;DHT22;7653;48.994;9.212;2022-07-15T07:59:45;21.30;13.70
15105;DHT22;7653;48.994;9.212;2022-07-15T08:02:11;21.60;13.00
15105;DHT22;7653;48.994;9.212;2022-07-15T08:04:37;21.50;12.20
15105;DHT22;7653;48.994;9.212;2022-07-15T08:07:03;21.60;12.80
15105;DHT22;7653;48.994;9.212;2022-07-15T08:09:30;21.80;14.70
15105;DHT22;7653;48.994;9.212;2022-07-15T08:11:57;22.00;14.90
15105;DHT22;7653;48.994;9.212;2022-07-15T08:14:24;22.20;15.10
15105;DHT22;7653;48.994;9.212;2022-07-15T08:16:50;22.20;13.80
15105;DHT22;7653;48.994;9.212;2022-07-15T08:19:16;22.10;13.40
15105;DHT22;7653;48.994;9.212;2022-07-15T08:21:43;22.00;11.80
15105;DHT22;7653;48.994;9.212;2022-07-15T08:24:09;22.10;13.10
15105;DHT22;7653;48.994;9.212;2022-07-15T08:26:40;22.10;13.40
15105;DHT22;7653;48.994;9.212;2022-07-15T08:29:07;21.90;12.80
15105;DHT22;7653;48.994;9.212;2022-07-15T08:31:36;21.60;12.40
15105;DHT22;7653;48.994;9.212;2022-07-15T08:34:04;21.70;13.80
15105;DHT22;7653;48.994;9.212;2022-07-15T08:36:33;21.70;12.30
15105;DHT22;7653;48.994;9.212;2022-07-15T08:39:02;21.40;13.00
15105;DHT22;7653;48.994;9.212;2022-07-15T08:41:29;21.60;13.80
15105;DHT22;7653;48.994;9.212;2022-07-15T08:43:58;22.00;13.00
15105;DHT22;7653;48.994;9.212;2022-07-15T08:46:25;22.10;12.10
15105;DHT22;7653;48.994;9.212;2022-07-15T08:48:53;22.00;12.50
15105;DHT22;7653;48.994;9.212;2022-07-15T08:51:23;22.20;12.30
15105;DHT22;7653;48.994;9.212;2022-07-15T08:53:51;22.40;12.60
15105;DHT22;7653;48.994;9.212;2022-07-15T08:56:18;22.60;12.50
15105;DHT22;7653;48.994;9.212;2022-07-15T08:58:45;22.70;12.20
15105;DHT22;7653;48.994;9.212;2022-07-15T09:01:11;22.80;12.70
15105;DHT22;7653;48.994;9.212;2022-07-15T09:03:37;22.70;12.50
15105;DHT22;7653;48.994;9.212;2022-07-15T09:06:04;22.80;12.30
15105;DHT22;7653;48.994;9.212;2022-07-15T09:08:33;22.60;12.90
15105;DHT22;7653;48.994;9.212;2022-07-15T09:11:00;22.80;13.40
15105;DHT22;7653;48.994;9.212;2022-07-15T09:13:40;22.90;12.20
15105;DHT22;7653;48.994;9.212;2022-07-15T09:16:13;22.60;11.80
15105;DHT22;7653;48.994;9.212;2022-07-15T09:18:49;22.70;11.90
15105;DHT22;7653;48.994;9.212;2022-07-15T09:23:44;22.40;12.20
15105;DHT22;7653;48.994;9.212;2022-07-15T09:26:30;22.40;11.60
15105;DHT22;7653;48.994;9.212;2022-07-15T09:28:58;22.50;11.70
15105;DHT22;7653;48.994;9.212;2022-07-15T09:31:36;22.80;11.90
15105;DHT22;7653;48.994;9.212;2022-07-15T09:34:22;22.80;12.40
15105;DHT22;7653;48.994;9.212;2022-07-15T09:36:51;22.80;13.40
15105;DHT22;7653;48.994;9.212;2022-07-15T09:39:20;23.10;12.90
15105;DHT22;7653;48.994;9.212;2022-07-15T09:41:48;22.80;12.50
15105;DHT22;7653;48.994;9.212;2022-07-15T09:44:22;23.00;12.10
15105;DHT22;7653;48.994;9.212;2022-07-15T09:49:35;23.20;12.10
15105;DHT22;7653;48.994;9.212;2022-07-15T09:52:11;23.20;12.90
15105;DHT22;7653;48.994;9.212;2022-07-15T09:54:44;23.20;12.40
15105;DHT22;7653;48.994;9.212;2022-07-15T09:57:18;23.00;12.60
15105;DHT22;7653;48.994;9.212;2022-07-15T09:59:47;23.20;11.80
15105;DHT22;7653;48.994;9.212;2022-07-15T10:02:14;23.50;12.30
15105;DHT22;7653;48.994;9.212;2022-07-15T10:04:42;23.00;11.60
15105;DHT22;7653;48.994;9.212;2022-07-15T10:07:11;22.90;12.00
15105;DHT22;7653;48.994;9.212;2022-07-15T10:09:37;22.80;12.00
15105;DHT22;7653;48.994;9.212;2022-07-15T10:14:59;22.60;12.40
15105;DHT22;7653;48.994;9.212;2022-07-15T10:23:37;23.10;11.00
15105;DHT22;7653;48.994;9.212;2022-07-15T10:31:16;23.20;10.50
15105;DHT22;7653;48.994;9.212;2022-07-15T10:39:20;23.40;11.50
15105;DHT22;7653;48.994;9.212;2022-07-15T10:44:29;23.80;10.40
15105;DHT22;7653;48.994;9.212;2022-07-15T10:49:47;24.00;9.90
15105;DHT22;7653;48.994;9.212;2022-07-15T10:52:25;24.20;11.20
15105;DHT22;7653;48.994;9.212;2022-07-15T10:57:19;24.40;9.80
15105;DHT22;7653;48.994;9.212;2022-07-15T10:59:50;24.00;9.50
15105;DHT22;7653;48.994;9.212;2022-07-15T11:02:17;24.00;9.10
15105;DHT22;7653;48.994;9.212;2022-07-15T11:04:44;24.00;8.30
15105;DHT22;7653;48.994;9.212;2022-07-15T11:15:12;24.00;9.00
15105;DHT22;7653;48.994;9.212;2022-07-15T11:17:45;23.60;9.50
15105;DHT22;7653;48.994;9.212;2022-07-15T11:20:12;23.70;9.00
15105;DHT22;7653;48.994;9.212;2022-07-15T11:22:44;23.90;8.80
15105;DHT22;7653;48.994;9.212;2022-07-15T11:28:00;23.50;9.30
15105;DHT22;7653;48.994;9.212;2022-07-15T11:30:31;23.90;9.80
15105;DHT22;7653;48.994;9.212;2022-07-15T11:32:59;24.30;8.30
15105;DHT22;7653;48.994;9.212;2022-07-15T11:35:26;24.10;8.90
15105;DHT22;7653;48.994;9.212;2022-07-15T11:37:59;24.10;8.90
15105;DHT22;7653;48.994;9.212;2022-07-15T11:40:25;24.30;8.60
15105;DHT22;7653;48.994;9.212;2022-07-15T11:43:14;24.50;8.40
15105;DHT22;7653;48.994;9.212;2022-07-15T11:45:59;24.30;7.50
15105;DHT22;7653;48.994;9.212;2022-07-15T11:48:25;24.20;7.90
15105;DHT22;7653;48.994;9.212;2022-07-15T11:50:54;24.50;8.50
15105;DHT22;7653;48.994;9.212;2022-07-15T11:53:20;24.60;8.00
15105;DHT22;7653;48.994;9.212;2022-07-15T11:55:49;24.70;10.50
15105;DHT22;7653;48.994;9.212;2022-07-15T11:58:15;25.00;7.60
15105;DHT22;7653;48.994;9.212;2022-07-15T12:00:47;25.00;7.30
15105;DHT22;7653;48.994;9.212;2022-07-15T12:03:13;24.90;8.60
15105;DHT22;7653;48.994;9.212;2022-07-15T12:05:39;25.00;7.30
15105;DHT22;7653;48.994;9.212;2022-07-15T12:08:04;24.80;8.60
15105;DHT22;7653;48.994;9.212;2022-07-15T12:10:34;25.00;8.30
15105;DHT22;7653;48.994;9.212;2022-07-15T12:13:07;25.60;9.70
15105;DHT22;7653;48.994;9.212;2022-07-15T12:15:33;26.20;8.20
15105;DHT22;7653;48.994;9.212;2022-07-15T12:18:00;25.60;7.60
15105;DHT22;7653;48.994;9.212;2022-07-15T12:20:26;25.10;7.50
15105;DHT22;7653;48.994;9.212;2022-07-15T12:23:21;25.10;7.30
15105;DHT22;7653;48.994;9.212;2022-07-15T12:26:07;25.30;8.20
15105;DHT22;7653;48.994;9.212;2022-07-15T12:28:34;25.00;7.30
15105;DHT22;7653;48.994;9.212;2022-07-15T12:31:00;24.80;7.30
15105;DHT22;7653;48.994;9.212;2022-07-15T12:33:26;25.20;7.10
15105;DHT22;7653;48.994;9.212;2022-07-15T12:36:13;25.40;6.90
15105;DHT22;7653;48.994;9.212;2022-07-15T12:38:39;25.70;7.50
15105;DHT22;7653;48.994;9.212;2022-07-15T12:41:06;25.70;6.30
15105;DHT22;7653;48.994;9.212;2022-07-15T12:43:54;25.50;5.80
15105;DHT22;7653;48.994;9.212;2022-07-15T12:49:49;25.70;5.80
15105;DHT22;7653;48.994;9.212;2022-07-15T12:52:35;25.80;6.20
15105;DHT22;7653;48.994;9.212;2022-07-15T12:55:17;25.40;6.50
15105;DHT22;7653;48.994;9.212;2022-07-15T12:57:45;25.80;5.70
15105;DHT22;7653;48.994;9.212;2022-07-15T13:05:24;25.10;5.90
15105;DHT22;7653;48.994;9.212;2022-07-15T13:07:50;24.90;7.20
15105;DHT22;7653;48.994;9.212;2022-07-15T13:10:16;25.50;6.80
15105;DHT22;7653;48.994;9.212;2022-07-15T13:12:42;25.60;6.00
15105;DHT22;7653;48.994;9.212;2022-07-15T13:15:09;25.40;6.80
15105;DHT22;7653;48.994;9.212;2022-07-15T13:17:36;25.30;6.70
15105;DHT22;7653;48.994;9.212;2022-07-15T13:20:03;24.70;7.10
15105;DHT22;7653;48.994;9.212;2022-07-15T13:22:31;25.50;6.50
15105;DHT22;7653;48.994;9.212;2022-07-15T13:24:57;25.30;6.20
15105;DHT22;7653;48.994;9.212;2022-07-15T13:27:24;25.40;7.50
15105;DHT22;7653;48.994;9.212;2022-07-15T13:29:49;25.70;6.80
15105;DHT22;7653;48.994;9.212;2022-07-15T13:32:15;26.10;5.80
15105;DHT22;7653;48.994;9.212;2022-07-15T13:34:41;26.10;5.80
15105;DHT22;7653;48.994;9.212;2022-07-15T13:37:06;26.80;6.10
15105;DHT22;7653;48.994;9.212;2022-07-15T13:39:32;27.10;3.90
15105;DHT22;7653;48.994;9.212;2022-07-15T13:41:57;27.00;4.40
15105;DHT22;7653;48.994;9.212;2022-07-15T13:44:23;26.20;5.10
15105;DHT22;7653;48.994;9.212;2022-07-15T13:46:49;26.00;5.20
15105;DHT22;7653;48.994;9.212;2022-07-15T13:49:14;26.80;4.50
15105;DHT22;7653;48.994;9.212;2022-07-15T13:51:40;27.10;3.90
15105;DHT22;7653;48.994;9.212;2022-07-15T13:54:07;27.40;3.50
15105;DHT22;7653;48.994;9.212;2022-07-15T13:56:35;27.20;3.90
15105;DHT22;7653;48.994;9.212;2022-07-15T13:59:02;26.80;3.80
15105;DHT22;7653;48.994;9.212;2022-07-15T14:01:30;27.00;3.80
15105;DHT22;7653;48.994;9.212;2022-07-15T14:03:58;27.70;4.10
15105;DHT22;7653;48.994;9.212;2022-07-15T14:06:24;27.50;3.10
15105;DHT22;7653;48.994;9.212;2022-07-15T14:08:50;26.80;3.70
15105;DHT22;7653;48.994;9.212;2022-07-15T14:11:16;27.60;3.30
15105;DHT22;7653;48.994;9.212;2022-07-15T14:13:43;27.30;3.40
15105;DHT22;7653;48.994;9.212;2022-07-15T14:16:08;27.80;2.20
15105;DHT22;7653;48.994;9.212;2022-07-15T14:18:34;27.10;4.60
15105;DHT22;7653;48.994;9.212;2022-07-15T14:21:17;27.80;2.80
15105;DHT22;7653;48.994;9.212;2022-07-15T14:23:44;27.60;4.10
15105;DHT22;7653;48.994;9.212;2022-07-15T14:26:10;26.40;3.60
15105;DHT22;7653;48.994;9.212;2022-07-15T14:28:37;26.20;4.70
15105;DHT22;7653;48.994;9.212;2022-07-15T14:31:08;27.00;3.80
15105;DHT22;7653;48.994;9.212;2022-07-15T14:33:34;27.20;3.80
15105;DHT22;7653;48.994;9.212;2022-07-15T14:35:59;27.70;3.10
15105;DHT22;7653;48.994;9.212;2022-07-15T14:38:25;28.40;2.10
15105;DHT22;7653;48.994;9.212;2022-07-15T14:40:51;29.00;1.20
15105;DHT22;7653;48.994;9.212;2022-07-15T14:43:19;28.70;2.10
15105;DHT22;7653;48.994;9.212;2022-07-15T14:45:56;28.40;2.30
15105;DHT22;7653;48.994;9.212;2022-07-15T14:48:22;28.70;1.50
15105;DHT22;7653;48.994;9.212;2022-07-15T14:50:48;27.40;2.40
15105;DHT22;7653;48.994;9.212;2022-07-15T14:53:15;28.40;1.80
15105;DHT22;7653;48.994;9.212;2022-07-15T14:55:41;28.80;1.00
15105;DHT22;7653;48.994;9.212;2022-07-15T14:58:06;28.30;1.60
15105;DHT22;7653;48.994;9.212;2022-07-15T15:00:32;28.50;1.30
15105;DHT22;7653;48.994;9.212;2022-07-15T15:02:58;28.60;1.00
15105;DHT22;7653;48.994;9.212;2022-07-15T15:05:24;28.10;1.10
15105;DHT22;7653;48.994;9.212;2022-07-15T15:07:49;28.20;1.10
15105;DHT22;7653;48.994;9.212;2022-07-15T15:10:15;27.90;1.20
15105;DHT22;7653;48.994;9.212;2022-07-15T15:12:41;26.50;3.50
15105;DHT22;7653;48.994;9.212;2022-07-15T15:15:07;26.80;2.90
15105;DHT22;7653;48.994;9.212;2022-07-15T15:17:33;27.40;2.40
15105;DHT22;7653;48.994;9.212;2022-07-15T15:19:58;27.60;1.60
15105;DHT22;7653;48.994;9.212;2022-07-15T15:22:29;27.60;1.60
15105;DHT22;7653;48.994;9.212;2022-07-15T15:24:55;27.10;2.20
15105;DHT22;7653;48.994;9.212;2022-07-15T15:27:20;27.80;1.00
15105;DHT22;7653;48.994;9.212;2022-07-15T15:29:46;26.80;3.10
15105;DHT22;7653;48.994;9.212;2022-07-15T15:32:11;27.60;1.30
15105;DHT22;7653;48.994;9.212;2022-07-15T15:34:40;27.00;2.30
15105;DHT22;7653;48.994;9.212;2022-07-15T15:37:06;26.90;2.10
15105;DHT22;7653;48.994;9.212;2022-07-15T15:39:32;27.00;1.80
15105;DHT22;7653;48.994;9.212;2022-07-15T15:41:57;26.90;2.10
15105;DHT22;7653;48.994;9.212;2022-07-15T15:44:23;26.40;3.10
15105;DHT22;7653;48.994;9.212;2022-07-15T15:46:49;26.90;2.30
15105;DHT22;7653;48.994;9.212;2022-07-15T15:49:14;26.10;3.30
15105;DHT22;7653;48.994;9.212;2022-07-15T15:51:40;25.80;3.20
15105;DHT22;7653;48.994;9.212;2022-07-15T15:54:07;26.20;3.40
15105;DHT22;7653;48.994;9.212;2022-07-15T15:56:36;25.90;3.20
15105;DHT22;7653;48.994;9.212;2022-07-15T15:59:01;26.50;3.10
15105;DHT22;7653;48.994;9.212;2022-07-15T16:01:27;26.30;3.40
15105;DHT22;7653;48.994;9.212;2022-07-15T16:03:53;27.30;2.50
15105;DHT22;7653;48.994;9.212;2022-07-15T16:06:18;26.80;3.10
15105;DHT22;7653;48.994;9.212;2022-07-15T16:08:44;26.80;2.50
15105;DHT22;7653;48.994;9.212;2022-07-15T16:11:11;27.00;1.90
15105;DHT22;7653;48.994;9.212;2022-07-15T16:13:37;27.00;2.20
15105;DHT22;7653;48.994;9.212;2022-07-15T16:16:03;26.80;2.30
15105;DHT22;7653;48.994;9.212;2022-07-15T16:18:28;26.80;2.70
15105;DHT22;7653;48.994;9.212;2022-07-15T16:20:54;26.20;3.40
15105;DHT22;7653;48.994;9.212;2022-07-15T16:23:20;26.80;2.10
15105;DHT22;7653;48.994;9.212;2022-07-15T16:25:46;27.10;1.70
15105;DHT22;7653;48.994;9.212;2022-07-15T16:28:12;26.30;3.00
15105;DHT22;7653;48.994;9.212;2022-07-15T16:30:42;25.70;3.10
15105;DHT22;7653;48.994;9.212;2022-07-15T16:33:09;25.70;3.10
15105;DHT22;7653;48.994;9.212;2022-07-15T16:35:35;25.80;4.20
15105;DHT22;7653;48.994;9.212;2022-07-15T16:38:05;26.80;2.70
15105;DHT22;7653;48.994;9.212;2022-07-15T16:40:32;27.00;2.60
15105;DHT22;7653;48.994;9.212;2022-07-15T16:42:59;26.30;3.40
15105;DHT22;7653;48.994;9.212;2022-07-15T16:45:25;26.40;3.50
15105;DHT22;7653;48.994;9.212;2022-07-15T16:47:51;25.90;4.70
15105;DHT22;7653;48.994;9.212;2022-07-15T16:50:16;25.50;3.90
15105;DHT22;7653;48.994;9.212;2022-07-15T16:52:42;25.40;4.70
15105;DHT22;7653;48.994;9.212;2022-07-15T16:55:09;25.90;3.40